Bayandelger, Mongolia
Current Conditions -  °F | °C
As of 1:30 PM on Thursday 27 Nov 2014 (Local Time) from ZMUB Reporting Station
Clear Clear  
Wind Chill: 12°   Ceiling: Unl
Heat Index: 12°   Visibility: 5mi
Dew Point: -8°   Wind: 0mph
Humidity: 41%   Direction: NA
Pressure: 29.71"   Gusts: NA
Location:  45.73°N, 112.37°E
Report Text: ZMUB 270530Z 00000MPS 8000NW NSC M11/M22 Q1006 NOSIG RMK QFE648.5 34 NW MO
Loading
Personal Weather Stations






























Interactive Weather Map New forecast layout! Learn more

10-Day Weather Forecast

Advertisements
Track Severe Weather on mobile